sensor_id;sensor_type;location;lat;lon;timestamp;P1;durP1;ratioP1;P2;durP2;ratioP2
9324;SDS011;4701;51.566;6.776;2023-03-01T07:02:44;12.87;;;7.37;;
9324;SDS011;4701;51.566;6.776;2023-03-01T07:04:46;13.93;;;9.20;;
9324;SDS011;4701;51.566;6.776;2023-03-01T07:06:50;15.70;;;10.13;;
9324;SDS011;4701;51.566;6.776;2023-03-01T07:08:55;15.77;;;9.63;;
9324;SDS011;4701;51.566;6.776;2023-03-01T07:10:57;14.47;;;10.13;;
9324;SDS011;4701;51.566;6.776;2023-03-01T07:12:59;21.83;;;10.33;;
9324;SDS011;4701;51.566;6.776;2023-03-01T07:15:01;21.17;;;10.53;;
9324;SDS011;4701;51.566;6.776;2023-03-01T07:17:03;19.27;;;10.70;;
9324;SDS011;4701;51.566;6.776;2023-03-01T07:19:06;20.33;;;10.70;;
9324;SDS011;4701;51.566;6.776;2023-03-01T07:21:09;14.57;;;11.00;;
9324;SDS011;4701;51.566;6.776;2023-03-01T07:23:13;12.30;;;10.27;;
9324;SDS011;4701;51.566;6.776;2023-03-01T07:25:15;16.37;;;10.00;;
9324;SDS011;4701;51.566;6.776;2023-03-01T07:27:17;16.03;;;10.33;;
9324;SDS011;4701;51.566;6.776;2023-03-01T07:29:19;12.73;;;9.70;;
9324;SDS011;4701;51.566;6.776;2023-03-01T07:31:20;12.73;;;9.87;;
9324;SDS011;4701;51.566;6.776;2023-03-01T07:33:22;12.90;;;9.47;;
9324;SDS011;4701;51.566;6.776;2023-03-01T07:35:26;14.63;;;10.30;;
9324;SDS011;4701;51.566;6.776;2023-03-01T07:37:28;12.60;;;9.93;;
9324;SDS011;4701;51.566;6.776;2023-03-01T07:39:30;12.23;;;8.73;;
9324;SDS011;4701;51.566;6.776;2023-03-01T07:41:32;13.63;;;9.10;;
9324;SDS011;4701;51.566;6.776;2023-03-01T07:43:34;12.93;;;8.50;;
9324;SDS011;4701;51.566;6.776;2023-03-01T07:45:36;15.30;;;9.13;;
9324;SDS011;4701;51.566;6.776;2023-03-01T07:47:37;15.80;;;9.17;;
9324;SDS011;4701;51.566;6.776;2023-03-01T07:49:39;13.53;;;9.57;;
9324;SDS011;4701;51.566;6.776;2023-03-01T07:51:42;12.30;;;9.07;;
9324;SDS011;4701;51.566;6.776;2023-03-01T07:53:45;14.87;;;8.97;;
9324;SDS011;4701;51.566;6.776;2023-03-01T07:55:47;14.47;;;8.97;;
9324;SDS011;4701;51.566;6.776;2023-03-01T07:57:51;11.70;;;9.30;;
9324;SDS011;4701;51.566;6.776;2023-03-01T07:59:53;11.47;;;8.30;;
9324;SDS011;4701;51.566;6.776;2023-03-01T08:01:55;11.67;;;8.67;;
9324;SDS011;4701;51.566;6.776;2023-03-01T08:03:57;13.27;;;8.93;;
9324;SDS011;4701;51.566;6.776;2023-03-01T08:05:59;14.30;;;8.90;;
9324;SDS011;4701;51.566;6.776;2023-03-01T08:08:03;11.27;;;8.50;;
9324;SDS011;4701;51.566;6.776;2023-03-01T08:10:06;11.87;;;8.70;;
9324;SDS011;4701;51.566;6.776;2023-03-01T08:12:08;13.97;;;9.13;;
9324;SDS011;4701;51.566;6.776;2023-03-01T08:14:10;13.07;;;8.60;;
9324;SDS011;4701;51.566;6.776;2023-03-01T08:16:12;16.13;;;8.57;;
9324;SDS011;4701;51.566;6.776;2023-03-01T08:18:16;11.40;;;8.57;;
9324;SDS011;4701;51.566;6.776;2023-03-01T08:20:18;14.23;;;8.97;;
9324;SDS011;4701;51.566;6.776;2023-03-01T08:22:21;11.60;;;9.33;;
9324;SDS011;4701;51.566;6.776;2023-03-01T08:24:24;10.97;;;8.40;;
9324;SDS011;4701;51.566;6.776;2023-03-01T08:26:26;13.43;;;9.40;;
9324;SDS011;4701;51.566;6.776;2023-03-01T08:28:28;12.07;;;8.67;;
9324;SDS011;4701;51.566;6.776;2023-03-01T08:30:29;11.23;;;8.93;;
9324;SDS011;4701;51.566;6.776;2023-03-01T08:32:34;12.63;;;8.93;;
9324;SDS011;4701;51.566;6.776;2023-03-01T08:34:37;14.53;;;9.13;;
9324;SDS011;4701;51.566;6.776;2023-03-01T08:36:39;11.70;;;9.20;;
9324;SDS011;4701;51.566;6.776;2023-03-01T08:38:42;16.20;;;9.70;;
9324;SDS011;4701;51.566;6.776;2023-03-01T08:40:45;14.87;;;8.73;;
9324;SDS011;4701;51.566;6.776;2023-03-01T08:42:47;11.90;;;8.60;;
9324;SDS011;4701;51.566;6.776;2023-03-01T08:44:49;14.83;;;8.27;;
9324;SDS011;4701;51.566;6.776;2023-03-01T08:46:50;12.53;;;8.63;;
9324;SDS011;4701;51.566;6.776;2023-03-01T08:48:53;13.10;;;9.33;;
9324;SDS011;4701;51.566;6.776;2023-03-01T08:50:55;13.17;;;9.10;;
9324;SDS011;4701;51.566;6.776;2023-03-01T08:52:57;12.80;;;9.00;;
9324;SDS011;4701;51.566;6.776;2023-03-01T08:54:59;11.83;;;9.03;;
9324;SDS011;4701;51.566;6.776;2023-03-01T08:57:03;11.10;;;9.00;;
9324;SDS011;4701;51.566;6.776;2023-03-01T08:59:05;14.30;;;9.40;;
9324;SDS011;4701;51.566;6.776;2023-03-01T09:01:08;12.30;;;9.87;;
9324;SDS011;4701;51.566;6.776;2023-03-01T09:03:13;11.83;;;8.67;;
9324;SDS011;4701;51.566;6.776;2023-03-01T09:05:15;12.27;;;8.73;;
9324;SDS011;4701;51.566;6.776;2023-03-01T09:07:17;13.17;;;9.17;;
9324;SDS011;4701;51.566;6.776;2023-03-01T09:09:18;14.20;;;8.97;;
9324;SDS011;4701;51.566;6.776;2023-03-01T09:11:20;11.00;;;8.57;;
9324;SDS011;4701;51.566;6.776;2023-03-01T09:13:24;11.90;;;8.30;;
9324;SDS011;4701;51.566;6.776;2023-03-01T09:15:27;9.97;;;8.10;;
9324;SDS011;4701;51.566;6.776;2023-03-01T09:17:29;12.57;;;8.23;;
9324;SDS011;4701;51.566;6.776;2023-03-01T09:19:30;11.03;;;8.00;;
9324;SDS011;4701;51.566;6.776;2023-03-01T09:21:32;11.07;;;8.13;;
9324;SDS011;4701;51.566;6.776;2023-03-01T09:23:34;11.73;;;8.67;;
9324;SDS011;4701;51.566;6.776;2023-03-01T09:25:38;11.40;;;8.20;;
9324;SDS011;4701;51.566;6.776;2023-03-01T09:27:40;13.90;;;7.87;;
9324;SDS011;4701;51.566;6.776;2023-03-01T09:29:44;12.40;;;8.33;;
9324;SDS011;4701;51.566;6.776;2023-03-01T09:31:45;11.43;;;7.87;;
9324;SDS011;4701;51.566;6.776;2023-03-01T09:33:48;11.37;;;8.00;;
9324;SDS011;4701;51.566;6.776;2023-03-01T09:35:55;10.87;;;8.03;;
9324;SDS011;4701;51.566;6.776;2023-03-01T09:37:57;9.90;;;7.33;;
9324;SDS011;4701;51.566;6.776;2023-03-01T09:39:59;9.40;;;7.33;;
9324;SDS011;4701;51.566;6.776;2023-03-01T09:42:01;12.07;;;8.47;;
9324;SDS011;4701;51.566;6.776;2023-03-01T09:44:07;10.40;;;7.67;;
9324;SDS011;4701;51.566;6.776;2023-03-01T09:46:20;9.97;;;7.40;;
9324;SDS011;4701;51.566;6.776;2023-03-01T09:48:25;13.30;;;7.90;;
9324;SDS011;4701;51.566;6.776;2023-03-01T09:50:32;11.00;;;7.60;;
9324;SDS011;4701;51.566;6.776;2023-03-01T09:52:38;10.87;;;7.23;;
9324;SDS011;4701;51.566;6.776;2023-03-01T09:54:43;10.47;;;6.87;;
9324;SDS011;4701;51.566;6.776;2023-03-01T09:56:46;12.60;;;7.30;;
9324;SDS011;4701;51.566;6.776;2023-03-01T09:58:56;10.00;;;7.20;;
9324;SDS011;4701;51.566;6.776;2023-03-01T10:01:04;10.73;;;7.27;;
9324;SDS011;4701;51.566;6.776;2023-03-01T10:03:20;8.50;;;7.00;;
9324;SDS011;4701;51.566;6.776;2023-03-01T10:05:33;13.57;;;6.73;;
9324;SDS011;4701;51.566;6.776;2023-03-01T10:07:41;13.47;;;7.40;;
9324;SDS011;4701;51.566;6.776;2023-03-01T10:09:50;11.53;;;6.63;;
9324;SDS011;4701;51.566;6.776;2023-03-01T10:11:52;12.60;;;7.43;;
9324;SDS011;4701;51.566;6.776;2023-03-01T10:13:58;11.10;;;6.90;;
9324;SDS011;4701;51.566;6.776;2023-03-01T10:16:05;9.03;;;6.83;;
9324;SDS011;4701;51.566;6.776;2023-03-01T10:18:14;9.47;;;6.67;;
9324;SDS011;4701;51.566;6.776;2023-03-01T10:20:22;8.93;;;6.57;;
9324;SDS011;4701;51.566;6.776;2023-03-01T10:22:27;10.03;;;6.70;;
9324;SDS011;4701;51.566;6.776;2023-03-01T10:24:32;12.73;;;6.67;;
9324;SDS011;4701;51.566;6.776;2023-03-01T10:26:39;9.20;;;6.37;;
9324;SDS011;4701;51.566;6.776;2023-03-01T10:28:58;11.53;;;6.90;;
9324;SDS011;4701;51.566;6.776;2023-03-01T10:31:04;10.37;;;6.80;;
9324;SDS011;4701;51.566;6.776;2023-03-01T10:33:08;8.97;;;6.53;;
9324;SDS011;4701;51.566;6.776;2023-03-01T10:35:18;11.50;;;6.97;;
9324;SDS011;4701;51.566;6.776;2023-03-01T10:37:23;8.23;;;6.27;;
9324;SDS011;4701;51.566;6.776;2023-03-01T10:39:27;9.90;;;6.67;;
9324;SDS011;4701;51.566;6.776;2023-03-01T10:41:29;9.53;;;7.10;;
9324;SDS011;4701;51.566;6.776;2023-03-01T10:43:32;8.73;;;6.43;;
9324;SDS011;4701;51.566;6.776;2023-03-01T10:45:44;11.07;;;6.60;;
9324;SDS011;4701;51.566;6.776;2023-03-01T10:47:46;10.13;;;6.80;;
9324;SDS011;4701;51.566;6.776;2023-03-01T10:49:52;11.03;;;6.73;;
9324;SDS011;4701;51.566;6.776;2023-03-01T10:52:11;7.80;;;6.27;;
9324;SDS011;4701;51.566;6.776;2023-03-01T10:54:20;11.93;;;6.40;;
9324;SDS011;4701;51.566;6.776;2023-03-01T10:56:26;10.90;;;5.93;;
9324;SDS011;4701;51.566;6.776;2023-03-01T10:58:28;8.37;;;6.23;;
9324;SDS011;4701;51.566;6.776;2023-03-01T11:00:30;8.57;;;6.03;;
9324;SDS011;4701;51.566;6.776;2023-03-01T11:02:33;9.27;;;6.27;;
9324;SDS011;4701;51.566;6.776;2023-03-01T11:04:36;9.80;;;6.10;;
9324;SDS011;4701;51.566;6.776;2023-03-01T11:06:39;9.93;;;6.47;;
9324;SDS011;4701;51.566;6.776;2023-03-01T11:08:43;8.60;;;6.00;;
9324;SDS011;4701;51.566;6.776;2023-03-01T11:10:47;10.07;;;6.27;;
9324;SDS011;4701;51.566;6.776;2023-03-01T11:12:53;9.27;;;6.83;;
9324;SDS011;4701;51.566;6.776;2023-03-01T11:14:55;10.20;;;7.00;;
9324;SDS011;4701;51.566;6.776;2023-03-01T11:16:59;9.43;;;6.17;;
9324;SDS011;4701;51.566;6.776;2023-03-01T11:19:18;10.00;;;6.67;;
9324;SDS011;4701;51.566;6.776;2023-03-01T11:21:22;8.33;;;6.63;;
9324;SDS011;4701;51.566;6.776;2023-03-01T11:23:25;7.93;;;6.73;;
9324;SDS011;4701;51.566;6.776;2023-03-01T11:25:31;10.10;;;6.40;;
9324;SDS011;4701;51.566;6.776;2023-03-01T11:27:39;13.40;;;6.53;;
9324;SDS011;4701;51.566;6.776;2023-03-01T11:29:48;9.10;;;5.90;;
9324;SDS011;4701;51.566;6.776;2023-03-01T11:31:56;9.40;;;6.37;;
9324;SDS011;4701;51.566;6.776;2023-03-01T11:34:03;7.67;;;6.20;;
9324;SDS011;4701;51.566;6.776;2023-03-01T11:36:15;9.17;;;6.20;;
9324;SDS011;4701;51.566;6.776;2023-03-01T11:38:26;11.27;;;6.73;;
9324;SDS011;4701;51.566;6.776;2023-03-01T11:40:29;8.43;;;6.50;;
9324;SDS011;4701;51.566;6.776;2023-03-01T11:42:40;8.40;;;6.23;;
9324;SDS011;4701;51.566;6.776;2023-03-01T11:44:48;10.23;;;6.03;;
9324;SDS011;4701;51.566;6.776;2023-03-01T11:47:04;10.33;;;6.13;;
9324;SDS011;4701;51.566;6.776;2023-03-01T11:49:30;7.93;;;6.47;;
9324;SDS011;4701;51.566;6.776;2023-03-01T11:51:51;9.27;;;6.37;;
9324;SDS011;4701;51.566;6.776;2023-03-01T11:54:06;7.83;;;6.07;;
9324;SDS011;4701;51.566;6.776;2023-03-01T11:56:16;9.80;;;6.40;;
9324;SDS011;4701;51.566;6.776;2023-03-01T11:58:36;8.63;;;5.77;;
9324;SDS011;4701;51.566;6.776;2023-03-01T12:00:59;9.43;;;6.10;;
9324;SDS011;4701;51.566;6.776;2023-03-01T12:03:20;8.57;;;5.93;;
9324;SDS011;4701;51.566;6.776;2023-03-01T12:07:59;7.63;;;6.27;;
9324;SDS011;4701;51.566;6.776;2023-03-01T12:10:15;8.60;;;6.50;;
9324;SDS011;4701;51.566;6.776;2023-03-01T12:12:35;9.07;;;6.27;;
9324;SDS011;4701;51.566;6.776;2023-03-01T12:14:49;8.63;;;6.00;;
9324;SDS011;4701;51.566;6.776;2023-03-01T12:17:14;8.83;;;5.60;;
9324;SDS011;4701;51.566;6.776;2023-03-01T12:19:32;8.07;;;5.93;;
9324;SDS011;4701;51.566;6.776;2023-03-01T12:21:48;9.43;;;6.03;;
9324;SDS011;4701;51.566;6.776;2023-03-01T12:24:14;8.73;;;6.23;;
9324;SDS011;4701;51.566;6.776;2023-03-01T12:26:32;7.57;;;6.30;;
9324;SDS011;4701;51.566;6.776;2023-03-01T12:28:43;8.47;;;6.53;;
9324;SDS011;4701;51.566;6.776;2023-03-01T12:31:03;11.47;;;6.50;;
9324;SDS011;4701;51.566;6.776;2023-03-01T12:33:27;8.40;;;6.47;;
9324;SDS011;4701;51.566;6.776;2023-03-01T12:35:51;8.20;;;6.17;;
9324;SDS011;4701;51.566;6.776;2023-03-01T12:38:11;8.90;;;6.40;;
9324;SDS011;4701;51.566;6.776;2023-03-01T12:40:26;9.50;;;5.97;;
9324;SDS011;4701;51.566;6.776;2023-03-01T12:42:40;9.07;;;6.73;;
9324;SDS011;4701;51.566;6.776;2023-03-01T12:45:01;7.10;;;6.33;;
9324;SDS011;4701;51.566;6.776;2023-03-01T12:47:23;8.00;;;6.37;;
9324;SDS011;4701;51.566;6.776;2023-03-01T12:49:39;8.47;;;6.30;;
9324;SDS011;4701;51.566;6.776;2023-03-01T12:51:46;7.70;;;6.53;;
9324;SDS011;4701;51.566;6.776;2023-03-01T12:53:54;8.67;;;6.83;;
9324;SDS011;4701;51.566;6.776;2023-03-01T12:55:59;10.43;;;7.10;;
9324;SDS011;4701;51.566;6.776;2023-03-01T12:58:05;11.87;;;7.33;;
9324;SDS011;4701;51.566;6.776;2023-03-01T13:00:20;8.40;;;7.10;;
9324;SDS011;4701;51.566;6.776;2023-03-01T13:02:31;8.70;;;6.53;;
9324;SDS011;4701;51.566;6.776;2023-03-01T13:04:46;8.43;;;7.30;;
9324;SDS011;4701;51.566;6.776;2023-03-01T13:07:07;9.80;;;7.00;;
9324;SDS011;4701;51.566;6.776;2023-03-01T13:09:19;8.10;;;7.20;;
9324;SDS011;4701;51.566;6.776;2023-03-01T13:11:27;9.20;;;7.60;;
9324;SDS011;4701;51.566;6.776;2023-03-01T13:13:30;7.73;;;6.77;;
9324;SDS011;4701;51.566;6.776;2023-03-01T13:15:33;8.73;;;6.97;;
9324;SDS011;4701;51.566;6.776;2023-03-01T13:17:44;9.10;;;6.63;;
9324;SDS011;4701;51.566;6.776;2023-03-01T13:19:55;7.23;;;6.37;;
9324;SDS011;4701;51.566;6.776;2023-03-01T13:21:58;9.93;;;6.73;;
9324;SDS011;4701;51.566;6.776;2023-03-01T13:24:01;10.13;;;7.17;;
9324;SDS011;4701;51.566;6.776;2023-03-01T13:26:04;9.10;;;7.00;;
9324;SDS011;4701;51.566;6.776;2023-03-01T13:30:42;9.47;;;7.43;;
9324;SDS011;4701;51.566;6.776;2023-03-01T13:32:45;7.80;;;6.60;;
9324;SDS011;4701;51.566;6.776;2023-03-01T13:34:59;8.20;;;6.43;;
9324;SDS011;4701;51.566;6.776;2023-03-01T13:39:30;8.40;;;6.77;;
9324;SDS011;4701;51.566;6.776;2023-03-01T13:41:49;10.20;;;7.07;;
9324;SDS011;4701;51.566;6.776;2023-03-01T13:43:53;8.13;;;6.93;;
9324;SDS011;4701;51.566;6.776;2023-03-01T13:45:55;11.57;;;7.33;;
9324;SDS011;4701;51.566;6.776;2023-03-01T13:47:58;10.27;;;7.60;;
9324;SDS011;4701;51.566;6.776;2023-03-01T13:50:05;10.03;;;6.97;;
9324;SDS011;4701;51.566;6.776;2023-03-01T13:52:14;9.57;;;8.00;;
9324;SDS011;4701;51.566;6.776;2023-03-01T13:54:32;9.57;;;7.77;;
9324;SDS011;4701;51.566;6.776;2023-03-01T13:56:36;11.17;;;8.37;;
9324;SDS011;4701;51.566;6.776;2023-03-01T13:58:46;9.43;;;8.17;;
9324;SDS011;4701;51.566;6.776;2023-03-01T14:04:22;13.93;;;7.77;;
9324;SDS011;4701;51.566;6.776;2023-03-01T14:06:26;9.03;;;8.03;;
9324;SDS011;4701;51.566;6.776;2023-03-01T14:08:30;8.00;;;7.20;;
9324;SDS011;4701;51.566;6.776;2023-03-01T14:10:35;11.47;;;7.83;;
9324;SDS011;4701;51.566;6.776;2023-03-01T14:12:46;8.00;;;7.17;;
9324;SDS011;4701;51.566;6.776;2023-03-01T14:14:55;9.93;;;7.27;;
9324;SDS011;4701;51.566;6.776;2023-03-01T14:17:04;8.63;;;7.30;;
9324;SDS011;4701;51.566;6.776;2023-03-01T14:19:29;9.13;;;7.67;;
9324;SDS011;4701;51.566;6.776;2023-03-01T14:21:32;11.70;;;7.77;;
9324;SDS011;4701;51.566;6.776;2023-03-01T14:23:37;9.83;;;8.27;;
9324;SDS011;4701;51.566;6.776;2023-03-01T14:25:46;11.50;;;8.40;;
9324;SDS011;4701;51.566;6.776;2023-03-01T14:27:51;11.83;;;7.97;;
9324;SDS011;4701;51.566;6.776;2023-03-01T14:29:57;14.07;;;8.57;;
9324;SDS011;4701;51.566;6.776;2023-03-01T14:32:08;10.03;;;8.03;;
9324;SDS011;4701;51.566;6.776;2023-03-01T14:34:16;9.87;;;7.73;;
9324;SDS011;4701;51.566;6.776;2023-03-01T14:36:26;9.13;;;8.13;;
9324;SDS011;4701;51.566;6.776;2023-03-01T14:38:30;9.27;;;8.00;;
9324;SDS011;4701;51.566;6.776;2023-03-01T14:40:35;9.10;;;8.20;;
9324;SDS011;4701;51.566;6.776;2023-03-01T14:42:38;10.10;;;8.17;;
9324;SDS011;4701;51.566;6.776;2023-03-01T14:44:40;10.93;;;8.00;;
9324;SDS011;4701;51.566;6.776;2023-03-01T14:46:43;12.03;;;9.07;;
9324;SDS011;4701;51.566;6.776;2023-03-01T14:48:47;12.57;;;8.37;;
9324;SDS011;4701;51.566;6.776;2023-03-01T14:50:51;10.97;;;7.57;;
9324;SDS011;4701;51.566;6.776;2023-03-01T14:52:55;12.23;;;8.40;;
9324;SDS011;4701;51.566;6.776;2023-03-01T14:55:00;11.23;;;8.53;;
9324;SDS011;4701;51.566;6.776;2023-03-01T14:57:03;10.53;;;8.13;;
9324;SDS011;4701;51.566;6.776;2023-03-01T14:59:07;10.60;;;8.90;;
9324;SDS011;4701;51.566;6.776;2023-03-01T15:01:12;11.10;;;8.40;;
9324;SDS011;4701;51.566;6.776;2023-03-01T15:03:19;11.00;;;8.77;;
9324;SDS011;4701;51.566;6.776;2023-03-01T15:05:28;10.40;;;8.07;;
9324;SDS011;4701;51.566;6.776;2023-03-01T15:07:32;9.80;;;7.93;;
9324;SDS011;4701;51.566;6.776;2023-03-01T15:09:39;11.13;;;6.80;;
9324;SDS011;4701;51.566;6.776;2023-03-01T15:11:42;12.43;;;8.13;;
9324;SDS011;4701;51.566;6.776;2023-03-01T15:13:44;8.50;;;7.20;;
9324;SDS011;4701;51.566;6.776;2023-03-01T15:15:47;12.87;;;8.63;;
9324;SDS011;4701;51.566;6.776;2023-03-01T15:17:52;12.40;;;8.50;;
9324;SDS011;4701;51.566;6.776;2023-03-01T15:19:56;9.53;;;7.30;;
9324;SDS011;4701;51.566;6.776;2023-03-01T15:21:58;10.37;;;8.00;;
9324;SDS011;4701;51.566;6.776;2023-03-01T15:24:16;13.53;;;7.60;;
9324;SDS011;4701;51.566;6.776;2023-03-01T15:26:24;9.73;;;7.70;;
9324;SDS011;4701;51.566;6.776;2023-03-01T15:28:28;9.20;;;6.93;;
9324;SDS011;4701;51.566;6.776;2023-03-01T15:30:33;9.07;;;7.07;;
9324;SDS011;4701;51.566;6.776;2023-03-01T15:32:38;10.03;;;7.10;;
9324;SDS011;4701;51.566;6.776;2023-03-01T15:34:42;8.33;;;6.83;;
9324;SDS011;4701;51.566;6.776;2023-03-01T15:36:44;11.50;;;7.07;;
9324;SDS011;4701;51.566;6.776;2023-03-01T15:38:51;9.10;;;6.90;;
9324;SDS011;4701;51.566;6.776;2023-03-01T15:40:55;11.13;;;8.13;;
9324;SDS011;4701;51.566;6.776;2023-03-01T15:42:59;12.17;;;7.00;;
9324;SDS011;4701;51.566;6.776;2023-03-01T15:45:09;12.33;;;7.33;;
9324;SDS011;4701;51.566;6.776;2023-03-01T15:47:23;10.23;;;7.13;;
9324;SDS011;4701;51.566;6.776;2023-03-01T15:49:33;14.93;;;8.63;;
9324;SDS011;4701;51.566;6.776;2023-03-01T15:51:38;13.37;;;8.40;;
9324;SDS011;4701;51.566;6.776;2023-03-01T15:53:40;8.10;;;6.70;;
9324;SDS011;4701;51.566;6.776;2023-03-01T15:55:42;12.73;;;7.13;;
9324;SDS011;4701;51.566;6.776;2023-03-01T15:57:46;9.50;;;7.87;;
9324;SDS011;4701;51.566;6.776;2023-03-01T15:59:49;10.13;;;7.13;;
9324;SDS011;4701;51.566;6.776;2023-03-01T16:01:51;11.10;;;7.70;;
9324;SDS011;4701;51.566;6.776;2023-03-01T16:03:52;11.10;;;7.70;;
9324;SDS011;4701;51.566;6.776;2023-03-01T16:05:54;10.30;;;8.27;;
9324;SDS011;4701;51.566;6.776;2023-03-01T16:07:57;8.37;;;7.33;;
9324;SDS011;4701;51.566;6.776;2023-03-01T16:09:58;11.97;;;7.40;;
9324;SDS011;4701;51.566;6.776;2023-03-01T16:12:00;10.10;;;7.80;;
9324;SDS011;4701;51.566;6.776;2023-03-01T16:14:02;10.20;;;7.43;;
9324;SDS011;4701;51.566;6.776;2023-03-01T16:16:06;11.10;;;7.50;;
9324;SDS011;4701;51.566;6.776;2023-03-01T16:18:12;12.33;;;8.00;;
9324;SDS011;4701;51.566;6.776;2023-03-01T16:20:14;10.10;;;7.43;;
9324;SDS011;4701;51.566;6.776;2023-03-01T16:22:16;8.00;;;7.03;;
9324;SDS011;4701;51.566;6.776;2023-03-01T16:24:24;9.67;;;7.23;;
9324;SDS011;4701;51.566;6.776;2023-03-01T16:26:26;11.93;;;8.03;;
9324;SDS011;4701;51.566;6.776;2023-03-01T16:28:28;10.53;;;6.83;;
9324;SDS011;4701;51.566;6.776;2023-03-01T16:30:30;9.57;;;7.20;;
9324;SDS011;4701;51.566;6.776;2023-03-01T16:32:33;9.37;;;7.53;;
9324;SDS011;4701;51.566;6.776;2023-03-01T16:34:39;12.07;;;7.73;;
9324;SDS011;4701;51.566;6.776;2023-03-01T16:36:42;16.07;;;11.20;;
9324;SDS011;4701;51.566;6.776;2023-03-01T16:38:44;12.77;;;9.20;;
9324;SDS011;4701;51.566;6.776;2023-03-01T16:40:50;10.10;;;7.47;;
9324;SDS011;4701;51.566;6.776;2023-03-01T16:42:53;9.40;;;7.10;;
9324;SDS011;4701;51.566;6.776;2023-03-01T16:44:59;9.50;;;7.03;;
9324;SDS011;4701;51.566;6.776;2023-03-01T16:47:01;9.03;;;6.73;;
9324;SDS011;4701;51.566;6.776;2023-03-01T16:49:04;11.50;;;8.10;;
9324;SDS011;4701;51.566;6.776;2023-03-01T16:51:06;9.97;;;7.20;;
9324;SDS011;4701;51.566;6.776;2023-03-01T16:53:08;9.20;;;6.53;;
9324;SDS011;4701;51.566;6.776;2023-03-01T16:55:11;17.20;;;7.20;;
9324;SDS011;4701;51.566;6.776;2023-03-01T16:57:12;10.10;;;7.20;;
9324;SDS011;4701;51.566;6.776;2023-03-01T16:59:14;9.40;;;6.47;;
9324;SDS011;4701;51.566;6.776;2023-03-01T17:01:17;9.57;;;6.57;;
9324;SDS011;4701;51.566;6.776;2023-03-01T17:03:25;10.80;;;7.03;;
9324;SDS011;4701;51.566;6.776;2023-03-01T17:05:30;8.00;;;5.90;;
9324;SDS011;4701;51.566;6.776;2023-03-01T17:07:32;12.70;;;7.97;;
9324;SDS011;4701;51.566;6.776;2023-03-01T17:09:34;14.83;;;7.70;;
9324;SDS011;4701;51.566;6.776;2023-03-01T17:11:37;10.20;;;6.50;;
9324;SDS011;4701;51.566;6.776;2023-03-01T17:13:39;11.40;;;7.43;;
9324;SDS011;4701;51.566;6.776;2023-03-01T17:15:41;9.33;;;6.77;;
9324;SDS011;4701;51.566;6.776;2023-03-01T17:17:43;13.57;;;7.10;;
9324;SDS011;4701;51.566;6.776;2023-03-01T17:19:45;10.90;;;7.70;;
9324;SDS011;4701;51.566;6.776;2023-03-01T17:21:48;12.83;;;7.93;;
9324;SDS011;4701;51.566;6.776;2023-03-01T17:23:50;11.77;;;7.07;;
9324;SDS011;4701;51.566;6.776;2023-03-01T17:25:57;11.47;;;7.33;;
9324;SDS011;4701;51.566;6.776;2023-03-01T17:27:59;11.00;;;6.97;;
9324;SDS011;4701;51.566;6.776;2023-03-01T17:30:01;12.87;;;7.07;;
9324;SDS011;4701;51.566;6.776;2023-03-01T17:32:03;12.43;;;7.40;;
9324;SDS011;4701;51.566;6.776;2023-03-01T17:34:05;14.13;;;8.27;;
9324;SDS011;4701;51.566;6.776;2023-03-01T17:36:10;12.67;;;7.97;;
9324;SDS011;4701;51.566;6.776;2023-03-01T17:38:13;10.07;;;6.43;;
9324;SDS011;4701;51.566;6.776;2023-03-01T17:40:15;10.63;;;7.20;;
9324;SDS011;4701;51.566;6.776;2023-03-01T17:42:17;11.57;;;6.70;;
9324;SDS011;4701;51.566;6.776;2023-03-01T17:44:19;9.30;;;6.47;;
9324;SDS011;4701;51.566;6.776;2023-03-01T17:46:21;8.90;;;6.50;;
9324;SDS011;4701;51.566;6.776;2023-03-01T17:48:32;10.17;;;6.10;;
9324;SDS011;4701;51.566;6.776;2023-03-01T17:50:39;13.30;;;8.20;;
9324;SDS011;4701;51.566;6.776;2023-03-01T17:52:41;35.73;;;24.27;;
9324;SDS011;4701;51.566;6.776;2023-03-01T17:54:44;16.23;;;9.90;;
9324;SDS011;4701;51.566;6.776;2023-03-01T17:56:46;9.77;;;7.03;;
9324;SDS011;4701;51.566;6.776;2023-03-01T17:58:48;8.10;;;5.67;;
9324;SDS011;4701;51.566;6.776;2023-03-01T18:00:50;10.73;;;6.10;;
9324;SDS011;4701;51.566;6.776;2023-03-01T18:02:51;9.90;;;6.20;;
9324;SDS011;4701;51.566;6.776;2023-03-01T18:05:01;8.30;;;6.07;;
9324;SDS011;4701;51.566;6.776;2023-03-01T18:07:03;9.37;;;6.17;;
9324;SDS011;4701;51.566;6.776;2023-03-01T18:09:05;9.43;;;6.17;;
9324;SDS011;4701;51.566;6.776;2023-03-01T18:11:08;9.20;;;6.30;;
9324;SDS011;4701;51.566;6.776;2023-03-01T18:13:11;6.57;;;5.23;;
9324;SDS011;4701;51.566;6.776;2023-03-01T18:15:13;7.27;;;5.77;;
9324;SDS011;4701;51.566;6.776;2023-03-01T18:17:15;11.87;;;6.67;;
9324;SDS011;4701;51.566;6.776;2023-03-01T18:19:20;9.97;;;6.27;;
9324;SDS011;4701;51.566;6.776;2023-03-01T18:21:28;9.43;;;5.87;;
9324;SDS011;4701;51.566;6.776;2023-03-01T18:23:35;8.97;;;6.20;;
9324;SDS011;4701;51.566;6.776;2023-03-01T18:25:38;7.57;;;5.80;;
9324;SDS011;4701;51.566;6.776;2023-03-01T18:27:41;9.27;;;5.50;;
9324;SDS011;4701;51.566;6.776;2023-03-01T18:29:43;8.13;;;6.00;;
9324;SDS011;4701;51.566;6.776;2023-03-01T18:31:45;9.00;;;6.07;;
9324;SDS011;4701;51.566;6.776;2023-03-01T18:33:47;9.53;;;5.90;;
9324;SDS011;4701;51.566;6.776;2023-03-01T18:35:49;9.63;;;6.00;;
9324;SDS011;4701;51.566;6.776;2023-03-01T18:37:51;9.80;;;5.43;;
9324;SDS011;4701;51.566;6.776;2023-03-01T18:39:53;10.37;;;6.00;;
9324;SDS011;4701;51.566;6.776;2023-03-01T18:41:55;9.63;;;6.17;;
9324;SDS011;4701;51.566;6.776;2023-03-01T18:43:58;8.40;;;5.40;;
9324;SDS011;4701;51.566;6.776;2023-03-01T18:46:01;11.30;;;6.23;;
9324;SDS011;4701;51.566;6.776;2023-03-01T18:48:04;8.70;;;5.43;;
9324;SDS011;4701;51.566;6.776;2023-03-01T18:50:06;7.90;;;5.87;;
9324;SDS011;4701;51.566;6.776;2023-03-01T18:52:09;8.47;;;5.73;;
9324;SDS011;4701;51.566;6.776;2023-03-01T18:54:11;8.80;;;6.17;;
9324;SDS011;4701;51.566;6.776;2023-03-01T18:56:13;11.00;;;6.27;;
9324;SDS011;4701;51.566;6.776;2023-03-01T18:58:15;10.40;;;6.23;;
9324;SDS011;4701;51.566;6.776;2023-03-01T19:00:18;7.93;;;5.77;;
9324;SDS011;4701;51.566;6.776;2023-03-01T19:02:21;9.37;;;6.33;;
9324;SDS011;4701;51.566;6.776;2023-03-01T19:04:23;9.67;;;5.87;;
9324;SDS011;4701;51.566;6.776;2023-03-01T19:06:27;12.43;;;6.17;;
9324;SDS011;4701;51.566;6.776;2023-03-01T19:08:32;12.83;;;6.00;;
9324;SDS011;4701;51.566;6.776;2023-03-01T19:10:33;10.00;;;6.83;;
9324;SDS011;4701;51.566;6.776;2023-03-01T19:12:35;10.03;;;6.10;;
9324;SDS011;4701;51.566;6.776;2023-03-01T19:14:37;14.13;;;6.53;;
9324;SDS011;4701;51.566;6.776;2023-03-01T19:16:40;11.17;;;6.07;;
9324;SDS011;4701;51.566;6.776;2023-03-01T19:18:42;9.00;;;6.00;;
9324;SDS011;4701;51.566;6.776;2023-03-01T19:20:55;10.43;;;6.60;;
9324;SDS011;4701;51.566;6.776;2023-03-01T19:22:58;9.33;;;6.77;;
9324;SDS011;4701;51.566;6.776;2023-03-01T19:25:00;6.93;;;5.50;;
9324;SDS011;4701;51.566;6.776;2023-03-01T19:27:01;12.83;;;6.70;;
9324;SDS011;4701;51.566;6.776;2023-03-01T19:29:03;8.70;;;5.83;;
9324;SDS011;4701;51.566;6.776;2023-03-01T19:31:06;11.60;;;5.60;;
9324;SDS011;4701;51.566;6.776;2023-03-01T19:33:10;7.90;;;5.47;;
9324;SDS011;4701;51.566;6.776;2023-03-01T19:35:12;9.47;;;5.27;;
9324;SDS011;4701;51.566;6.776;2023-03-01T19:37:13;9.43;;;5.53;;
9324;SDS011;4701;51.566;6.776;2023-03-01T19:39:15;8.40;;;5.60;;
9324;SDS011;4701;51.566;6.776;2023-03-01T19:41:17;9.57;;;5.63;;
9324;SDS011;4701;51.566;6.776;2023-03-01T19:43:21;8.27;;;5.50;;
9324;SDS011;4701;51.566;6.776;2023-03-01T19:45:24;9.90;;;6.00;;
9324;SDS011;4701;51.566;6.776;2023-03-01T19:47:26;9.17;;;5.53;;
9324;SDS011;4701;51.566;6.776;2023-03-01T19:49:29;9.87;;;5.33;;
9324;SDS011;4701;51.566;6.776;2023-03-01T19:51:32;11.90;;;6.27;;
9324;SDS011;4701;51.566;6.776;2023-03-01T19:53:35;10.57;;;5.67;;
9324;SDS011;4701;51.566;6.776;2023-03-01T19:55:38;7.67;;;5.37;;
9324;SDS011;4701;51.566;6.776;2023-03-01T19:57:40;7.63;;;5.60;;
9324;SDS011;4701;51.566;6.776;2023-03-01T19:59:42;7.57;;;4.87;;
9324;SDS011;4701;51.566;6.776;2023-03-01T20:01:44;8.03;;;5.87;;
9324;SDS011;4701;51.566;6.776;2023-03-01T20:03:46;8.03;;;5.57;;
9324;SDS011;4701;51.566;6.776;2023-03-01T20:05:49;9.87;;;5.77;;